TimeEDT,TemperatureF,Dew PointF,Humidity,Sea Level PressureIn,VisibilityMPH,Wind Direction,Wind SpeedMPH,Gust SpeedMPH,PrecipitationIn,Events,Conditions,WindDirDegrees,DateUTC
12:43 AM,37.4,35.6,93,30.00,10.0,SE,9.2,26.5,0.00,Rain,Light Rain,140,2013-03-18 04:43:00
12:51 AM,37.0,35.1,93,30.04,10.0,SE,18.4,24.2,0.00,Rain,Light Rain,130,2013-03-18 04:51:00
1:41 AM,37.4,33.8,87,30.00,10.0,SE,12.7,23.0,0.00,Rain,Light Rain,130,2013-03-18 05:41:00
1:51 AM,36.0,34.0,93,30.04,10.0,SE,13.8,24.2,0.00,Rain,Light Rain,130,2013-03-18 05:51:00
2:51 AM,36.0,33.1,89,30.04,10.0,SE,15.0,27.6,0.00,,Overcast,140,2013-03-18 06:51:00
3:51 AM,35.1,32.0,89,30.05,10.0,SE,16.1,27.6,N/A,,Overcast,140,2013-03-18 07:51:00
4:51 AM,35.1,32.0,89,30.04,10.0,SE,18.4,28.8,N/A,,Overcast,130,2013-03-18 08:51:00
5:51 AM,35.1,30.9,85,30.02,10.0,SE,18.4,29.9,N/A,,Overcast,140,2013-03-18 09:51:00
6:51 AM,34.0,30.9,89,30.01,10.0,SE,20.7,33.4,N/A,,Overcast,140,2013-03-18 10:51:00
7:51 AM,34.0,30.0,85,30.00,10.0,SE,15.0,31.1,N/A,,Overcast,130,2013-03-18 11:51:00
8:51 AM,34.0,30.0,85,29.99,10.0,SE,19.6,33.4,N/A,,Overcast,130,2013-03-18 12:51:00
9:51 AM,34.0,30.9,89,29.97,10.0,SE,23.0,35.7,N/A,,Overcast,140,2013-03-18 13:51:00
10:51 AM,35.1,30.0,82,29.96,10.0,SE,21.9,34.5,N/A,,Overcast,130,2013-03-18 14:51:00
11:42 AM,35.6,30.2,81,29.89,10.0,SE,24.2,35.7,N/A,,Overcast,130,2013-03-18 15:42:00
11:51 AM,36.0,30.9,82,29.95,10.0,SE,18.4,29.9,N/A,,Overcast,140,2013-03-18 15:51:00
12:51 PM,35.1,30.0,82,30.00,10.0,South,11.5,19.6,N/A,,Overcast,170,2013-03-18 16:51:00
1:16 PM,33.8,30.2,87,29.92,10.0,SE,12.7,21.9,0.00,Rain,Light Rain,140,2013-03-18 17:16:00
1:51 PM,35.1,30.9,85,29.96,10.0,ESE,10.4,19.6,0.00,Rain,Light Rain,120,2013-03-18 17:51:00
2:51 PM,34.0,30.9,89,30.00,4.0,SSE,8.1,-,0.05,Rain,Rain,150,2013-03-18 18:51:00
3:12 PM,33.8,32.0,93,29.92,4.0,SE,5.8,-,0.03,Rain,Light Rain,140,2013-03-18 19:12:00
3:51 PM,37.9,36.0,93,29.95,10.0,SE,10.4,-,0.05,,Mostly Cloudy,140,2013-03-18 19:51:00
4:51 PM,39.0,34.0,82,29.93,10.0,SE,10.4,19.6,N/A,,Overcast,140,2013-03-18 20:51:00
5:51 PM,36.0,34.0,93,29.88,10.0,SSE,16.1,25.3,0.01,Rain,Light Rain,150,2013-03-18 21:51:00
6:51 PM,37.9,35.1,89,29.87,6.0,SSE,13.8,23.0,0.01,Rain,Light Rain,150,2013-03-18 22:51:00
7:51 PM,37.0,34.0,89,29.83,10.0,SSE,12.7,19.6,0.01,,Clear,150,2013-03-18 23:51:00
8:51 PM,37.9,35.1,89,29.84,10.0,SE,6.9,-,N/A,,Clear,130,2013-03-19 00:51:00
9:51 PM,39.9,36.0,86,29.83,10.0,SE,8.1,-,N/A,,Mostly Cloudy,140,2013-03-19 01:51:00
10:51 PM,41.0,36.0,82,29.83,10.0,SE,5.8,-,N/A,,Overcast,130,2013-03-19 02:51:00
11:51 PM,41.0,37.0,86,29.82,10.0,ESE,4.6,-,N/A,,Overcast,120,2013-03-19 03:51:00